createdAt,value
2019-03-28T00:00:31.356Z,80.8
2019-03-28T00:01:21.847Z,80.9
2019-03-28T00:02:11.833Z,81
2019-03-28T00:03:02.084Z,81
2019-03-28T00:03:52.105Z,80.9
2019-03-28T00:04:42.216Z,80.9
2019-03-28T00:05:31.359Z,80.9
2019-03-28T00:06:21.392Z,80.9
2019-03-28T00:07:11.532Z,81
2019-03-28T00:08:01.439Z,81
2019-03-28T00:08:51.390Z,81.1
2019-03-28T00:09:41.380Z,81.1
2019-03-28T00:10:31.393Z,81.1
2019-03-28T00:11:21.893Z,81.1
2019-03-28T00:12:11.963Z,81.1
2019-03-28T00:13:03.258Z,81.1
2019-03-28T00:13:52.827Z,81
2019-03-28T00:14:43.200Z,81.1
2019-03-28T00:15:33.225Z,81.1
2019-03-28T00:16:23.212Z,81
2019-03-28T00:17:12.946Z,80.9
2019-03-28T00:18:02.816Z,80.8
2019-03-28T00:18:53.207Z,80.9
2019-03-28T00:19:42.815Z,80.9
2019-03-28T00:20:32.860Z,80.8
2019-03-28T00:21:22.811Z,80.9
2019-03-28T00:22:12.882Z,81
2019-03-28T00:23:02.825Z,81
2019-03-28T00:23:52.845Z,81
2019-03-28T00:24:42.868Z,81.1
2019-03-28T00:25:32.842Z,81.1
2019-03-28T00:26:29.787Z,81.2
2019-03-28T00:27:12.845Z,81.2
2019-03-28T00:28:02.794Z,81.2
2019-03-28T00:28:52.845Z,81.1
2019-03-28T00:29:42.872Z,81.2
2019-03-28T00:30:32.833Z,81.2
2019-03-28T00:31:25.292Z,81.2
2019-03-28T00:32:12.880Z,81.2
2019-03-28T00:33:03.735Z,81.3
2019-03-28T00:33:53.642Z,81.3
2019-03-28T00:34:43.594Z,81.3
2019-03-28T00:35:33.620Z,81.4
2019-03-28T00:36:23.878Z,81.3
2019-03-28T00:37:13.637Z,81.3
2019-03-28T00:38:03.683Z,81.4
2019-03-28T00:38:53.619Z,81.4
2019-03-28T00:39:43.622Z,81.4
2019-03-28T00:40:33.620Z,81.4
2019-03-28T00:41:23.672Z,81.4
2019-03-28T00:42:13.652Z,81.4
2019-03-28T00:43:03.597Z,81.5
2019-03-28T00:43:53.591Z,81.6
2019-03-28T00:44:43.596Z,81.7
2019-03-28T00:45:33.589Z,81.7
2019-03-28T00:46:23.727Z,81.6
2019-03-28T00:47:13.710Z,81.6
2019-03-28T00:48:03.589Z,81.7
2019-03-28T00:48:53.588Z,81.7
2019-03-28T00:49:43.625Z,81.7
2019-03-28T00:50:34.363Z,81.7
2019-03-28T00:51:23.636Z,81.8
2019-03-28T00:52:14.188Z,81.7
2019-03-28T00:53:03.981Z,81.7
2019-03-28T00:53:53.863Z,81.7
2019-03-28T00:54:43.844Z,81.7
2019-03-28T00:55:33.839Z,81.7
2019-03-28T00:56:23.827Z,81.8
2019-03-28T00:57:13.941Z,81.8
2019-03-28T00:58:03.873Z,81.8
2019-03-28T00:58:53.906Z,81.8
2019-03-28T00:59:43.882Z,81.8
2019-03-28T01:00:33.858Z,81.7
2019-03-28T01:01:23.988Z,81.7
2019-03-28T01:02:13.881Z,81.8
2019-03-28T01:03:03.859Z,81.8
2019-03-28T01:03:53.875Z,81.9
2019-03-28T01:04:43.894Z,82
2019-03-28T01:05:33.856Z,82
2019-03-28T01:06:23.914Z,82
2019-03-28T01:07:13.901Z,81.9
2019-03-28T01:08:03.872Z,81.9
2019-03-28T01:08:53.858Z,81.9
2019-03-28T01:09:43.925Z,82
2019-03-28T01:10:33.870Z,82
2019-03-28T01:11:23.829Z,82
2019-03-28T01:12:13.918Z,82.1
2019-03-28T01:13:03.901Z,82.1
2019-03-28T01:13:53.859Z,82.1
2019-03-28T01:14:44.154Z,82.1
2019-03-28T01:15:34.153Z,82.1
2019-03-28T01:16:24.143Z,82.1
2019-03-28T01:17:14.152Z,82.1
2019-03-28T01:18:04.142Z,82.1
2019-03-28T01:18:54.431Z,82.1
2019-03-28T01:19:44.163Z,82.1
2019-03-28T01:20:34.129Z,82.1
2019-03-28T01:21:24.114Z,82.1
2019-03-28T01:22:14.143Z,82.1
2019-03-28T01:23:04.349Z,82.1
2019-03-28T01:23:54.379Z,82.1
2019-03-28T01:24:44.322Z,82.1
2019-03-28T01:25:34.457Z,82.1
2019-03-28T01:26:24.435Z,82.2
2019-03-28T01:27:14.556Z,82.2
2019-03-28T01:28:04.489Z,82.2
2019-03-28T01:28:55.418Z,82.2
2019-03-28T01:29:45.290Z,82.3
2019-03-28T01:30:35.397Z,82.4
2019-03-28T01:31:25.281Z,82.4
2019-03-28T01:32:15.320Z,82.5
2019-03-28T01:33:05.448Z,82.5
2019-03-28T01:33:55.453Z,82.5
2019-03-28T01:34:45.396Z,82.5
2019-03-28T01:35:35.338Z,82.5
2019-03-28T01:36:25.553Z,82.5
2019-03-28T01:37:15.363Z,82.4
2019-03-28T01:38:05.598Z,82.4
2019-03-28T01:38:55.413Z,82.4
2019-03-28T01:39:45.953Z,82.4
2019-03-28T01:40:35.481Z,82.4
2019-03-28T01:41:25.353Z,82.4
2019-03-28T01:42:15.363Z,82.4
2019-03-28T01:43:05.317Z,82.5
2019-03-28T01:43:55.315Z,82.5
2019-03-28T01:44:45.362Z,82.5
2019-03-28T01:45:36.574Z,82.5
2019-03-28T01:46:25.330Z,82.6
2019-03-28T01:47:15.398Z,82.6
2019-03-28T01:48:05.419Z,82.7
2019-03-28T01:48:55.313Z,82.7
2019-03-28T01:49:45.402Z,82.7
2019-03-28T01:50:37.060Z,82.7
2019-03-28T01:51:25.315Z,82.7
2019-03-28T01:52:15.355Z,82.7
2019-03-28T01:53:05.332Z,82.6
2019-03-28T01:53:55.410Z,82.6
2019-03-28T01:54:45.373Z,82.6
2019-03-28T01:55:38.131Z,82.5
2019-03-28T01:56:25.372Z,82.4
2019-03-28T01:57:15.895Z,82.4
2019-03-28T01:58:05.562Z,82.4
2019-03-28T01:58:55.557Z,82.4
2019-03-28T01:59:46.305Z,82.4
2019-03-28T02:00:38.847Z,82.4
2019-03-28T02:01:25.562Z,82.4
2019-03-28T02:02:15.721Z,82.4
2019-03-28T02:03:05.626Z,82.4
2019-03-28T02:03:55.672Z,82.4
2019-03-28T02:04:45.593Z,82.4
2019-03-28T02:05:36.101Z,82.4
2019-03-28T02:06:25.620Z,82.4
2019-03-28T02:07:15.614Z,82.4
2019-03-28T02:08:05.734Z,82.4
2019-03-28T02:08:55.607Z,82.4
2019-03-28T02:09:45.615Z,82.4
2019-03-28T02:10:35.607Z,82.4
2019-03-28T02:11:25.657Z,82.4
2019-03-28T02:12:15.625Z,82.5
2019-03-28T02:13:05.641Z,82.5
2019-03-28T02:13:55.585Z,82.5
2019-03-28T02:14:45.565Z,82.5
2019-03-28T02:15:35.646Z,82.5
2019-03-28T02:16:25.610Z,82.5
2019-03-28T02:17:15.634Z,82.5
2019-03-28T02:18:05.609Z,82.5
2019-03-28T02:18:55.601Z,82.5
2019-03-28T02:19:45.588Z,82.6
2019-03-28T02:20:36.162Z,82.6
2019-03-28T02:21:25.711Z,82.6
2019-03-28T02:22:15.620Z,82.6
2019-03-28T02:23:05.690Z,82.7
2019-03-28T02:23:55.613Z,82.7
2019-03-28T02:24:45.612Z,82.7
2019-03-28T02:25:35.620Z,82.7
2019-03-28T02:26:25.632Z,82.8
2019-03-28T02:27:23.665Z,82.8
2019-03-28T02:28:05.597Z,82.8
2019-03-28T02:28:55.593Z,82.8
2019-03-28T02:29:46.427Z,82.8
2019-03-28T02:30:36.424Z,82.8
2019-03-28T02:31:26.337Z,82.7
2019-03-28T02:32:16.397Z,82.7
2019-03-28T02:33:06.355Z,82.8
2019-03-28T02:33:56.325Z,82.8
2019-03-28T02:34:48.912Z,82.9
2019-03-28T02:35:36.346Z,83
2019-03-28T02:36:26.331Z,83
2019-03-28T02:37:16.326Z,83
2019-03-28T02:38:06.326Z,83
2019-03-28T02:38:56.743Z,83
2019-03-28T02:39:46.614Z,83.1
2019-03-28T02:40:36.623Z,83.1
2019-03-28T02:41:26.368Z,83.2
2019-03-28T02:42:16.461Z,83.2
2019-03-28T02:43:06.324Z,83.5
2019-03-28T02:43:56.507Z,83.3
2019-03-28T02:44:46.910Z,83.3
2019-03-28T02:45:36.359Z,83.4
2019-03-28T02:46:26.349Z,83.4
2019-03-28T02:47:16.379Z,83.4
2019-03-28T02:48:06.351Z,83.3
2019-03-28T02:48:56.347Z,83.4
2019-03-28T02:49:47.302Z,83.2
2019-03-28T02:50:37.688Z,83.2
2019-03-28T02:51:26.342Z,83.2
2019-03-28T02:52:16.355Z,83.3
2019-03-28T02:53:06.359Z,83.3
2019-03-28T02:53:56.341Z,83.3
2019-03-28T02:54:49.111Z,83.3
2019-03-28T02:55:36.458Z,83.3
2019-03-28T02:56:26.399Z,83.3
2019-03-28T02:57:16.348Z,83.3
2019-03-28T02:58:06.339Z,83.3
2019-03-28T02:58:56.409Z,83.4
2019-03-28T02:59:49.016Z,83.3
2019-03-28T03:00:36.349Z,83.4
2019-03-28T03:01:30.061Z,83.4
2019-03-28T03:02:16.516Z,83.4
2019-03-28T03:03:06.332Z,83.5
2019-03-28T03:03:56.341Z,83.6
2019-03-28T03:04:46.688Z,83.7
2019-03-28T03:05:36.357Z,83.8
2019-03-28T03:06:26.325Z,83.8
2019-03-28T03:07:16.347Z,83.8
2019-03-28T03:08:07.756Z,83.7
2019-03-28T03:08:57.306Z,83.7
2019-03-28T03:09:46.992Z,83.7
2019-03-28T03:10:36.975Z,83.6
2019-03-28T03:11:27.065Z,83.6
2019-03-28T03:12:16.993Z,83.5
2019-03-28T03:13:06.976Z,83.5
2019-03-28T03:13:57.023Z,83.5
2019-03-28T03:14:46.984Z,83.5
2019-03-28T03:15:37.004Z,83.5
2019-03-28T03:16:26.979Z,83.6
2019-03-28T03:17:17.026Z,83.8
2019-03-28T03:18:07.700Z,83.8
2019-03-28T03:18:57.506Z,84
2019-03-28T03:19:46.941Z,84
2019-03-28T03:20:37.002Z,84
2019-03-28T03:21:26.949Z,84
2019-03-28T03:22:17.057Z,83.9
2019-03-28T03:23:07.053Z,83.8
2019-03-28T03:23:57.030Z,83.8
2019-03-28T03:24:46.992Z,83.8
2019-03-28T03:25:37.020Z,83.9
2019-03-28T03:26:27.002Z,84
2019-03-28T03:27:16.966Z,84
2019-03-28T03:28:07.000Z,84
2019-03-28T03:28:57.279Z,84
2019-03-28T03:29:47.009Z,84
2019-03-28T03:30:37.001Z,84
2019-03-28T03:31:26.983Z,84
2019-03-28T03:32:17.054Z,84
2019-03-28T03:33:08.683Z,84.1
2019-03-28T03:33:57.003Z,84
2019-03-28T03:34:47.027Z,84.1
2019-03-28T03:35:37.026Z,84.2
2019-03-28T03:36:27.044Z,84.3
2019-03-28T03:37:16.991Z,84.2
2019-03-28T03:38:07.005Z,84.2
2019-03-28T03:38:57.014Z,84.3
2019-03-28T03:39:47.046Z,84.3
2019-03-28T03:40:36.992Z,84.4
2019-03-28T03:41:27.042Z,84.4
2019-03-28T03:42:16.985Z,84.4
2019-03-28T03:43:06.970Z,84.6
2019-03-28T03:43:57.075Z,84.7
2019-03-28T03:44:47.017Z,84.7
2019-03-28T03:45:37.003Z,84.7
2019-03-28T03:46:27.576Z,84.8
2019-03-28T03:47:17.214Z,84.9
2019-03-28T03:48:07.091Z,84.9
2019-03-28T03:48:57.271Z,84.9
2019-03-28T03:49:47.264Z,84.8
2019-03-28T03:50:37.116Z,84.9
2019-03-28T03:51:27.050Z,84.9
2019-03-28T03:52:17.036Z,84.9
2019-03-28T03:53:07.562Z,84.9
2019-03-28T03:53:57.983Z,84.9
2019-03-28T03:54:47.235Z,84.9
2019-03-28T03:55:37.007Z,84.9
2019-03-28T03:56:27.062Z,85
2019-03-28T03:57:17.012Z,85
2019-03-28T03:58:14.983Z,85.1
2019-03-28T03:58:56.979Z,85.1
2019-03-28T03:59:47.008Z,85.2
2019-03-28T04:00:37.063Z,85.1
2019-03-28T04:01:27.086Z,85.2
2019-03-28T04:02:17.029Z,85.2
2019-03-28T04:03:07.063Z,85.2
2019-03-28T04:03:58.910Z,85.1
2019-03-28T04:04:47.640Z,85.1
2019-03-28T04:05:37.105Z,85.1
2019-03-28T04:06:27.001Z,85.1
2019-03-28T04:07:17.060Z,85.1
2019-03-28T04:08:07.044Z,85.2
2019-03-28T04:08:59.650Z,85.2
2019-03-28T04:09:47.017Z,85.3
2019-03-28T04:10:37.116Z,85.3
2019-03-28T04:11:27.061Z,85.3
2019-03-28T04:12:17.124Z,85.3
2019-03-28T04:13:07.413Z,85.3
2019-03-28T04:14:00.341Z,85.4
2019-03-28T04:14:47.026Z,85.4
2019-03-28T04:15:37.980Z,85.4
2019-03-28T04:16:27.020Z,85.5
2019-03-28T04:17:17.071Z,85.6
2019-03-28T04:18:07.005Z,85.6
2019-03-28T04:18:57.057Z,85.6
2019-03-28T04:19:47.013Z,85.6
2019-03-28T04:20:37.035Z,85.5
2019-03-28T04:21:27.057Z,85.5
2019-03-28T04:22:17.020Z,85.5
2019-03-28T04:23:08.619Z,85.6
2019-03-28T04:23:57.011Z,85.6
2019-03-28T04:24:47.698Z,85.7
2019-03-28T04:25:37.040Z,85.6
2019-03-28T04:26:27.080Z,85.6
2019-03-28T04:27:17.041Z,85.6
2019-03-28T04:28:07.036Z,85.5
2019-03-28T04:28:57.079Z,85.6
2019-03-28T04:29:47.088Z,85.7
2019-03-28T04:30:37.059Z,85.7
2019-03-28T04:31:27.079Z,85.7
2019-03-28T04:32:17.052Z,85.7
2019-03-28T04:33:07.578Z,85.7
2019-03-28T04:33:57.113Z,85.6
2019-03-28T04:34:47.146Z,85.6
2019-03-28T04:35:37.077Z,85.6
2019-03-28T04:36:27.076Z,85.6
2019-03-28T04:37:17.078Z,85.6
2019-03-28T04:38:07.027Z,85.6
2019-03-28T04:38:57.101Z,85.6
2019-03-28T04:39:47.088Z,85.6
2019-03-28T04:40:37.017Z,85.6
2019-03-28T04:41:27.101Z,85.7
2019-03-28T04:42:17.088Z,85.7
2019-03-28T04:43:07.471Z,85.7
2019-03-28T04:43:57.039Z,85.7
2019-03-28T04:44:47.040Z,85.7
2019-03-28T04:45:37.035Z,85.7
2019-03-28T04:46:27.016Z,85.7
2019-03-28T04:47:16.997Z,85.7
2019-03-28T04:48:07.325Z,85.7
2019-03-28T04:48:57.025Z,85.8
2019-03-28T04:49:47.045Z,85.8
2019-03-28T04:50:37.275Z,85.8
2019-03-28T04:51:27.480Z,85.9
2019-03-28T04:52:17.286Z,85.9
2019-03-28T04:53:08.663Z,86.1
2019-03-28T04:53:57.829Z,86.2
2019-03-28T04:54:47.526Z,86.3
2019-03-28T04:55:37.733Z,86.3
2019-03-28T04:56:27.605Z,86.2
2019-03-28T04:57:17.768Z,86.2
2019-03-28T04:58:07.651Z,86.2
2019-03-28T04:58:57.839Z,86.1
2019-03-28T04:59:47.559Z,86.1
2019-03-28T05:00:37.551Z,86
2019-03-28T05:01:27.718Z,86
2019-03-28T05:02:17.595Z,86
2019-03-28T05:03:08.106Z,86
2019-03-28T05:03:57.573Z,86
2019-03-28T05:04:47.680Z,86
2019-03-28T05:05:37.549Z,86
2019-03-28T05:06:27.598Z,86
2019-03-28T05:07:18.206Z,86
2019-03-28T05:08:12.193Z,86
2019-03-28T05:09:02.239Z,86
2019-03-28T05:09:52.251Z,86
2019-03-28T05:10:42.199Z,86.1
2019-03-28T05:11:32.263Z,86.1
2019-03-28T05:12:22.226Z,86.1
2019-03-28T05:13:12.636Z,86.1
2019-03-28T05:14:02.256Z,86.1
2019-03-28T05:14:52.193Z,86.1
2019-03-28T05:15:43.009Z,86.1
2019-03-28T05:16:32.957Z,86.2
2019-03-28T05:17:22.965Z,86.3
2019-03-28T05:18:12.971Z,86.3
2019-03-28T05:19:02.944Z,86.3
2019-03-28T05:19:52.982Z,86.3
2019-03-28T05:20:42.944Z,86.2
2019-03-28T05:21:33.010Z,86.3
2019-03-28T05:22:23.741Z,86.2
2019-03-28T05:23:14.766Z,86.2
2019-03-28T05:24:03.711Z,86.2
2019-03-28T05:24:53.781Z,86.3
2019-03-28T05:25:43.707Z,86.3
2019-03-28T05:26:33.709Z,86.3
2019-03-28T05:27:23.763Z,86.3
2019-03-28T05:28:13.692Z,86.3
2019-03-28T05:29:04.001Z,86.3
2019-03-28T05:29:53.833Z,86.3
2019-03-28T05:30:43.713Z,86.4
2019-03-28T05:31:34.343Z,86.4
2019-03-28T05:32:23.904Z,86.4
2019-03-28T05:33:15.724Z,86.5
2019-03-28T05:34:03.878Z,86.5
2019-03-28T05:34:54.127Z,86.6
2019-03-28T05:35:43.831Z,86.6
2019-03-28T05:36:33.839Z,86.7
2019-03-28T05:37:23.862Z,86.8
2019-03-28T05:38:13.777Z,86.9
2019-03-28T05:39:04.400Z,86.9
2019-03-28T05:39:54.004Z,86.8
2019-03-28T05:40:44.157Z,86.8
2019-03-28T05:41:34.005Z,86.8
2019-03-28T05:42:24.003Z,86.8
2019-03-28T05:43:14.294Z,86.9
2019-03-28T05:44:03.989Z,86.9
2019-03-28T05:44:54.018Z,86.9
2019-03-28T05:45:45.163Z,86.9
2019-03-28T05:46:34.009Z,86.9
2019-03-28T05:47:24.666Z,86.9
2019-03-28T05:48:15.284Z,87
2019-03-28T05:49:04.662Z,87.1
2019-03-28T05:49:54.665Z,87.1
2019-03-28T05:50:44.650Z,87.1
2019-03-28T05:51:35.575Z,87.1
2019-03-28T05:52:25.567Z,87.1
2019-03-28T05:53:15.933Z,87.2
2019-03-28T05:54:06.094Z,87.2
2019-03-28T05:54:55.811Z,87.2
2019-03-28T05:55:45.882Z,87.2
2019-03-28T05:56:35.844Z,87.2
2019-03-28T05:57:25.827Z,87.2
2019-03-28T05:58:16.863Z,87.2
2019-03-28T05:59:10.954Z,87.2
2019-03-28T05:59:55.844Z,87.2
2019-03-28T06:00:45.877Z,87.2
2019-03-28T06:01:35.834Z,87.3
2019-03-28T06:02:25.892Z,87.2
2019-03-28T06:03:17.580Z,87.3
2019-03-28T06:04:05.844Z,87.2
2019-03-28T06:04:55.919Z,87.2
2019-03-28T06:05:45.858Z,87.2
2019-03-28T06:06:35.833Z,87.3
2019-03-28T06:07:25.834Z,87.2
2019-03-28T06:08:18.544Z,87.2
2019-03-28T06:09:07.101Z,87.2
2019-03-28T06:09:56.969Z,87.2
2019-03-28T06:10:46.981Z,87.2
2019-03-28T06:11:37.473Z,87.2
2019-03-28T06:12:27.383Z,87.3
2019-03-28T06:13:18.922Z,87.2
2019-03-28T06:14:07.951Z,87.2
2019-03-28T06:14:57.867Z,87.2
2019-03-28T06:15:47.876Z,87.2
2019-03-28T06:16:37.873Z,87.3
2019-03-28T06:17:28.506Z,87.3
2019-03-28T06:18:20.354Z,87.4
2019-03-28T06:19:08.361Z,87.4
2019-03-28T06:19:58.770Z,87.5
2019-03-28T06:20:49.139Z,87.5
2019-03-28T06:21:40.069Z,87.5
2019-03-28T06:22:29.975Z,87.5
2019-03-28T06:23:21.275Z,87.4
2019-03-28T06:24:11.467Z,87.4
2019-03-28T06:25:01.183Z,87.4
2019-03-28T06:25:51.133Z,87.4
2019-03-28T06:26:41.449Z,87.4
2019-03-28T06:27:31.131Z,87.4
2019-03-28T06:28:21.468Z,87.4
2019-03-28T06:29:23.091Z,87.4
2019-03-28T06:30:02.558Z,87.7
2019-03-28T06:30:52.156Z,87.4
2019-03-28T06:31:54.270Z,87.4
2019-03-28T06:32:42.151Z,87.4
2019-03-28T06:33:26.169Z,87.4
2019-03-28T06:34:14.696Z,87.5
2019-03-28T06:35:04.972Z,87.5
2019-03-28T06:35:55.196Z,87.5
2019-03-28T06:36:45.180Z,87.5
2019-03-28T06:37:35.376Z,87.5
2019-03-28T06:38:25.227Z,87.4
2019-03-28T06:39:16.384Z,87.5
2019-03-28T06:40:05.608Z,87.5
2019-03-28T06:40:55.373Z,87.5
2019-03-28T06:41:45.236Z,87.5
2019-03-28T06:42:35.286Z,87.5
2019-03-28T06:43:25.423Z,87.5
2019-03-28T06:44:15.291Z,87.6
2019-03-28T06:45:05.625Z,87.5
2019-03-28T06:45:56.135Z,87.6
2019-03-28T06:46:46.054Z,87.5
2019-03-28T06:47:36.112Z,87.5
2019-03-28T06:48:26.229Z,87.5
2019-03-28T06:49:16.171Z,87.5
2019-03-28T06:50:06.072Z,87.5
2019-03-28T06:50:56.195Z,87.5
2019-03-28T06:51:46.381Z,87.5
2019-03-28T06:52:38.903Z,87.6
2019-03-28T06:53:30.446Z,87.6
2019-03-28T06:54:19.504Z,87.7
2019-03-28T06:55:10.486Z,87.5
2019-03-28T06:56:00.614Z,87.5
2019-03-28T06:56:50.343Z,87.4
2019-03-28T06:57:40.410Z,87.4
2019-03-28T06:58:30.642Z,87.4
2019-03-28T06:59:20.402Z,87.3
2019-03-28T07:00:10.378Z,87.4
2019-03-28T07:01:00.658Z,87.3
2019-03-28T07:01:50.397Z,87.2
2019-03-28T07:02:40.396Z,87.2
2019-03-28T07:03:30.774Z,87.1
2019-03-28T07:04:20.376Z,87.1
2019-03-28T07:05:10.362Z,87
2019-03-28T07:06:01.411Z,86.9
2019-03-28T07:06:50.389Z,86.9
2019-03-28T07:07:40.387Z,86.8
2019-03-28T07:08:30.408Z,86.8
2019-03-28T07:09:20.429Z,86.6
2019-03-28T07:10:10.895Z,86.6
2019-03-28T07:11:00.706Z,86.5
2019-03-28T07:11:50.404Z,86.3
2019-03-28T07:12:40.429Z,86.3
2019-03-28T07:13:32.206Z,86.2
2019-03-28T07:14:20.429Z,86
2019-03-28T07:15:10.382Z,85.8
2019-03-28T07:16:00.735Z,85.5
2019-03-28T07:16:50.383Z,85.4
2019-03-28T07:17:40.406Z,85.2
2019-03-28T07:18:30.388Z,85.1
2019-03-28T07:19:20.472Z,85
2019-03-28T07:20:10.519Z,85
2019-03-28T07:21:00.807Z,84.8
2019-03-28T07:21:50.514Z,84.8
2019-03-28T07:22:40.553Z,84.8
2019-03-28T07:23:33.536Z,84.7
2019-03-28T07:24:20.391Z,84.6
2019-03-28T07:25:10.887Z,84.5
2019-03-28T07:26:00.685Z,84.4
2019-03-28T07:26:51.431Z,84.3
2019-03-28T07:27:40.399Z,83.9
2019-03-28T07:28:31.082Z,83.8
2019-03-28T07:29:20.413Z,83.7
2019-03-28T07:30:10.337Z,83.5
2019-03-28T07:31:00.508Z,83.4
2019-03-28T07:31:50.484Z,83.3
2019-03-28T07:32:43.102Z,83.2
2019-03-28T07:33:31.721Z,83.2
2019-03-28T07:34:20.442Z,83
2019-03-28T07:35:10.443Z,82.8
2019-03-28T07:36:00.594Z,82.7
2019-03-28T07:36:50.463Z,82.7
2019-03-28T07:37:40.467Z,82.6
2019-03-28T07:38:32.291Z,82.6
2019-03-28T07:39:20.465Z,82.5
2019-03-28T07:40:10.417Z,82.5
2019-03-28T07:41:00.717Z,82.2
2019-03-28T07:41:50.467Z,82
2019-03-28T07:42:40.424Z,81.9
2019-03-28T07:43:33.126Z,81.8
2019-03-28T07:44:20.426Z,81.7
2019-03-28T07:45:10.531Z,81.6
2019-03-28T07:46:00.639Z,81.6
2019-03-28T07:46:50.440Z,81.5
2019-03-28T07:47:40.476Z,81.5
2019-03-28T07:48:33.019Z,81.3
2019-03-28T07:49:20.577Z,81.2
2019-03-28T07:50:11.511Z,81.1
2019-03-28T07:51:00.656Z,80.9
2019-03-28T07:51:50.410Z,80.9
2019-03-28T07:52:40.438Z,80.7
2019-03-28T07:53:30.552Z,80.6
2019-03-28T07:54:20.445Z,80.7
2019-03-28T07:55:10.391Z,80.6
2019-03-28T07:56:00.560Z,80.5
2019-03-28T07:56:50.444Z,80.5
2019-03-28T07:57:41.390Z,80.4
2019-03-28T07:58:30.680Z,80.3
2019-03-28T07:59:20.669Z,80.1
2019-03-28T08:00:10.651Z,80.1
2019-03-28T08:01:01.583Z,79.8
2019-03-28T08:01:50.705Z,79.7
2019-03-28T08:02:40.668Z,79.7
2019-03-28T08:03:30.741Z,79.6
2019-03-28T08:04:20.678Z,79.5
2019-03-28T08:05:10.660Z,79.3
2019-03-28T08:06:00.711Z,79.2
2019-03-28T08:06:51.846Z,79.2
2019-03-28T08:07:45.150Z,79.2
2019-03-28T08:08:38.497Z,79.3
2019-03-28T08:09:20.687Z,79.3
2019-03-28T08:10:11.149Z,79.4
2019-03-28T08:11:00.967Z,79.4
2019-03-28T08:11:50.879Z,79.3
2019-03-28T08:12:40.943Z,79.4
2019-03-28T08:13:30.924Z,79.3
2019-03-28T08:14:20.920Z,78.9
2019-03-28T08:15:11.092Z,79.1
2019-03-28T08:16:00.979Z,79
2019-03-28T08:16:51.127Z,78.8
2019-03-28T08:17:41.007Z,78.7
2019-03-28T08:18:31.029Z,78.6
2019-03-28T08:19:20.918Z,78.4
2019-03-28T08:20:10.974Z,78.1
2019-03-28T08:21:00.936Z,77.6
2019-03-28T08:21:50.957Z,77.7
2019-03-28T08:22:40.972Z,77.7
2019-03-28T08:23:30.946Z,77.6
2019-03-28T08:24:20.979Z,77.4
2019-03-28T08:25:11.777Z,77.3
2019-03-28T08:26:00.950Z,77.2
2019-03-28T08:26:51.017Z,76.8
2019-03-28T08:27:43.251Z,76.8
2019-03-28T08:28:31.515Z,76.7
2019-03-28T08:29:21.528Z,76.4
2019-03-28T08:30:17.896Z,76.4
2019-03-28T08:31:01.502Z,76.4
2019-03-28T08:31:51.554Z,76.2
2019-03-28T08:32:41.519Z,76
2019-03-28T08:33:31.599Z,75.8
2019-03-28T08:34:21.558Z,76
2019-03-28T08:35:11.605Z,75.9
2019-03-28T08:36:01.532Z,76
2019-03-28T08:36:51.615Z,76
2019-03-28T08:37:44.177Z,75.8
2019-03-28T08:38:31.563Z,75.6
2019-03-28T08:39:21.531Z,75.4
2019-03-28T09:01:36.190Z,72.7
2019-03-28T09:02:26.100Z,72.8
2019-03-28T09:03:16.070Z,72.7
2019-03-28T09:04:06.076Z,72.6
2019-03-28T09:04:56.073Z,72.7
2019-03-28T09:05:48.991Z,72.6
2019-03-28T09:06:36.120Z,72.6
2019-03-28T17:29:51.616Z,55.8
2019-03-28T17:30:41.596Z,56
2019-03-28T17:33:11.866Z,55.9
2019-03-28T17:34:04.490Z,56
2019-03-28T17:34:51.859Z,56.1
2019-03-28T17:35:41.846Z,56.1
2019-03-28T17:36:31.839Z,56.1
2019-03-28T17:41:32.050Z,56.6
2019-03-28T17:42:21.839Z,56.6
2019-03-28T17:43:11.859Z,56.4
2019-03-28T17:44:02.027Z,56.5
2019-03-28T17:44:51.865Z,56.5
2019-03-28T17:45:41.848Z,56.6
2019-03-28T17:46:32.115Z,56.7
2019-03-28T18:02:23.841Z,58.9
2019-03-28T18:04:03.250Z,59
2019-03-28T18:04:53.297Z,59.2
2019-03-28T18:05:57.057Z,59.4
2019-03-28T18:06:33.236Z,59.3
2019-03-28T18:07:23.238Z,59.4
2019-03-28T18:08:13.221Z,59.3
2019-03-28T18:09:03.279Z,59.4
2019-03-28T18:09:53.177Z,59.4
2019-03-28T18:10:43.287Z,59.5
2019-03-28T18:11:33.810Z,59.6
2019-03-28T18:12:23.708Z,59.9
2019-03-28T18:13:15.063Z,59.9
2019-03-28T18:14:04.489Z,59.6
2019-03-28T18:14:54.478Z,59.8
2019-03-28T18:15:44.769Z,60.1
2019-03-28T18:16:34.765Z,60.3
2019-03-28T18:17:25.696Z,60.5
2019-03-28T18:18:15.283Z,60.7
2019-03-28T18:19:04.730Z,61.1
2019-03-28T18:19:54.711Z,61.3
2019-03-28T18:20:44.741Z,61.3
2019-03-28T18:21:34.780Z,61.3
2019-03-28T18:22:24.746Z,61.4
2019-03-28T18:23:17.641Z,61.5
2019-03-28T18:24:07.714Z,61.7
2019-03-28T18:24:59.092Z,61.7
2019-03-28T18:25:48.684Z,61.9
2019-03-28T18:26:38.691Z,62
2019-03-28T18:27:28.694Z,62.1
2019-03-28T18:28:18.711Z,62.3
2019-03-28T18:29:08.641Z,62.4
2019-03-28T18:29:58.782Z,62.6
2019-03-28T18:30:49.182Z,62.9
2019-03-28T18:31:49.622Z,63.1
2019-03-28T18:32:29.125Z,63.2
2019-03-28T18:33:19.142Z,63.6
2019-03-28T18:34:12.143Z,63.8
2019-03-28T18:35:04.889Z,64
2019-03-28T18:35:49.178Z,64.1
2019-03-28T18:36:39.205Z,64.1
2019-03-28T18:37:29.225Z,64.2
2019-03-28T18:38:19.132Z,64.3
2019-03-28T18:39:09.170Z,64.4
2019-03-28T18:39:59.202Z,64.4
2019-03-28T18:40:49.161Z,64.8
2019-03-28T18:41:39.358Z,65
2019-03-28T18:42:29.411Z,65.1
2019-03-28T18:43:19.553Z,65.3
2019-03-28T18:44:09.470Z,65.3
2019-03-28T18:44:59.459Z,65.5
2019-03-28T18:45:49.451Z,65.6
2019-03-28T18:46:39.436Z,65.7
2019-03-28T18:47:29.424Z,65.8
2019-03-28T18:48:27.660Z,65.9
2019-03-28T18:49:09.430Z,65.9
2019-03-28T18:50:03.006Z,66.2
2019-03-28T18:50:49.799Z,66.3
2019-03-28T18:51:39.732Z,66.4
2019-03-28T18:52:29.810Z,66.3
2019-03-28T18:53:20.922Z,66.5
2019-03-28T18:54:09.678Z,66.6
2019-03-28T18:54:59.839Z,66.6
2019-03-28T18:55:50.376Z,66.8
2019-03-28T18:56:40.085Z,66.9
2019-03-28T18:57:30.996Z,66.8
2019-03-28T18:58:20.790Z,67
2019-03-28T18:59:11.585Z,67
2019-03-28T19:00:02.376Z,67.1
2019-03-28T19:00:55.662Z,67.3
2019-03-28T19:01:47.039Z,67.3
2019-03-28T19:02:36.939Z,67.4
2019-03-28T19:03:26.888Z,67.5
2019-03-28T19:04:17.993Z,67.6
2019-03-28T19:05:18.939Z,67.6
2019-03-28T19:05:57.783Z,67.8
2019-03-28T19:06:47.822Z,67.8
2019-03-28T19:07:37.849Z,68
2019-03-28T19:08:27.897Z,68
2019-03-28T19:09:20.663Z,68.1
2019-03-28T19:10:07.829Z,68.2
2019-03-28T19:10:57.834Z,68.3
2019-03-28T19:11:47.773Z,68.4
2019-03-28T19:12:37.824Z,68.5
2019-03-28T19:13:27.784Z,68.5
2019-03-28T19:14:17.805Z,68.5
2019-03-28T19:15:08.921Z,68.6
2019-03-28T19:15:58.897Z,68.6
2019-03-28T19:16:51.912Z,68.5
2019-03-28T19:17:38.756Z,68.5
2019-03-28T19:18:29.623Z,68.9
2019-03-28T19:19:19.531Z,68.7
2019-03-28T19:20:09.976Z,68.8
2019-03-28T19:20:59.316Z,68.7
2019-03-28T19:21:49.340Z,68.8
2019-03-28T19:22:39.430Z,68.9
2019-03-28T19:23:29.353Z,69
2019-03-28T19:24:24.898Z,69.1
2019-03-28T19:25:15.252Z,69.1
2019-03-28T19:26:05.001Z,69.2
2019-03-28T19:26:55.010Z,69.3
2019-03-28T19:27:46.599Z,69.5
2019-03-28T19:28:39.901Z,69.6
2019-03-28T19:29:29.969Z,69.7
2019-03-28T19:30:20.760Z,69.7
2019-03-28T19:31:11.501Z,70.2
2019-03-28T19:32:01.972Z,69.9
2019-03-28T19:32:51.974Z,69.9
2019-03-28T19:33:41.962Z,69.9
2019-03-28T19:34:33.793Z,69.9
2019-03-28T19:35:32.677Z,69.9
2019-03-28T19:36:13.824Z,70
2019-03-28T19:37:03.920Z,69.9
2019-03-28T19:37:54.858Z,70
2019-03-28T19:38:44.743Z,70.1
2019-03-28T19:39:34.846Z,70.1
2019-03-28T19:40:42.526Z,70
2019-03-28T19:42:08.324Z,70.1
2019-03-28T19:42:58.285Z,70.1
2019-03-28T19:43:48.372Z,70.2
2019-03-28T19:44:38.301Z,70.2
2019-03-28T19:45:28.617Z,70.2
2019-03-28T19:46:18.287Z,70.3
2019-03-28T19:47:08.483Z,70.2
2019-03-28T19:47:58.891Z,70.3
2019-03-28T19:48:49.127Z,70.3
2019-03-28T19:49:39.162Z,70.4
2019-03-28T19:50:29.557Z,70.5
2019-03-28T19:51:20.304Z,70.5
2019-03-28T19:52:13.083Z,70.6
2019-03-28T19:53:00.012Z,70.7
2019-03-28T19:53:50.041Z,70.7
2019-03-28T19:54:40.009Z,70.7
2019-03-28T19:55:33.549Z,70.8
2019-03-28T19:56:22.222Z,70.8
2019-03-28T19:57:12.960Z,70.8
2019-03-28T19:58:06.432Z,70.8
2019-03-28T19:58:57.404Z,70.8
2019-03-28T19:59:51.705Z,70.8
2019-03-28T20:00:40.456Z,70.9
2019-03-28T20:01:30.523Z,71
2019-03-28T20:02:20.442Z,71
2019-03-28T20:03:10.757Z,71.1
2019-03-28T20:04:00.720Z,71.1
2019-03-28T20:04:50.442Z,71.2
2019-03-28T20:05:47.191Z,71.2
2019-03-28T20:06:33.410Z,71.2
2019-03-28T20:07:23.872Z,71.3
2019-03-28T20:08:16.198Z,71.4
2019-03-28T20:09:15.587Z,71.4
2019-03-28T20:09:57.174Z,71.4
2019-03-28T20:10:45.144Z,71.4
2019-03-28T20:11:34.762Z,71.5
2019-03-28T20:12:24.881Z,71.5
2019-03-28T20:13:15.444Z,71.6
2019-03-28T20:14:05.299Z,71.6
2019-03-28T20:14:55.510Z,71.6
2019-03-28T20:15:45.310Z,71.7
2019-03-28T20:16:35.342Z,71.7
2019-03-28T20:17:25.301Z,71.7